Time;durP1;ratioP1;P1;durP2;ratioP2;P2;SDS_P1;SDS_P2;PMS_P1;PMS_P2;Temp;Humidity;BMP_temperature;BMP_pressure;BME280_temperature;BME280_humidity;BME280_pressure;Samples;Min_cycle;Max_cycle;Signal;HPM_P1;HPM_P2
2022/06/28 00:01:41;;;;;;;4.70;4.30;;;;;;;;;;4934013;29;20210;-85
2022/06/28 00:04:46;;;;;;;4.50;3.93;;;;;;;;;;4933731;29;20203;-85
2022/06/28 00:07:50;;;;;;;6.20;5.10;;;;;;;;;;4925371;29;20200;-85
2022/06/28 00:10:54;;;;;;;5.13;4.10;;;;;;;;;;4925855;29;20208;-85
2022/06/28 00:13:58;;;;;;;4.27;3.80;;;;;;;;;;4915449;29;20181;-85
2022/06/28 00:17:03;;;;;;;4.67;4.23;;;;;;;;;;4903894;29;20195;-86
2022/06/28 00:20:08;;;;;;;9.17;4.27;;;;;;;;;;4937721;29;20176;-85
2022/06/28 00:23:12;;;;;;;6.27;4.80;;;;;;;;;;4915160;29;20536;-85
2022/06/28 00:26:16;;;;;;;5.37;4.80;;;;;;;;;;4943610;29;20203;-85
2022/06/28 00:29:20;;;;;;;7.93;4.27;;;;;;;;;;4923152;29;20630;-85
2022/06/28 00:32:24;;;;;;;5.20;4.50;;;;;;;;;;4919495;29;20235;-86
2022/06/28 00:35:29;;;;;;;9.30;5.00;;;;;;;;;;4915163;29;20184;-85
2022/06/28 00:38:33;;;;;;;6.13;4.80;;;;;;;;;;4914688;29;20192;-85
2022/06/28 00:41:37;;;;;;;5.43;4.53;;;;;;;;;;4904253;29;20219;-86
2022/06/28 00:44:42;;;;;;;6.47;5.13;;;;;;;;;;4934243;29;20188;-86
2022/06/28 00:47:47;;;;;;;7.43;4.90;;;;;;;;;;4934183;29;20183;-85
2022/06/28 00:50:51;;;;;;;5.57;4.80;;;;;;;;;;4933523;29;20211;-85
2022/06/28 00:53:55;;;;;;;5.23;4.73;;;;;;;;;;4922323;29;20191;-85
2022/06/28 00:56:59;;;;;;;5.77;4.70;;;;;;;;;;4944657;29;20187;-85
2022/06/28 01:00:03;;;;;;;7.73;5.00;;;;;;;;;;4933534;29;20187;-86
2022/06/28 01:03:11;;;;;;;8.17;5.17;;;;;;;;;;4944033;29;20630;-85
2022/06/28 01:06:15;;;;;;;7.43;5.03;;;;;;;;;;4933043;29;20188;-85
2022/06/28 01:09:21;;;;;;;9.63;4.83;;;;;;;;;;4922327;29;20183;-85
2022/06/28 01:12:25;;;;;;;6.87;5.63;;;;;;;;;;4919778;29;20235;-85
2022/06/28 01:15:30;;;;;;;6.43;5.33;;;;;;;;;;4903414;29;20183;-85
2022/06/28 01:18:39;;;;;;;6.47;4.90;;;;;;;;;;4914581;29;20188;-85
2022/06/28 01:22:00;;;;;;;7.23;5.30;;;;;;;;;;4905231;29;20216;-85
2022/06/28 01:25:07;;;;;;;16.63;6.43;;;;;;;;;;4924857;29;20635;-85
2022/06/28 01:28:12;;;;;;;8.57;5.40;;;;;;;;;;4903002;29;20195;-85
2022/06/28 01:31:22;;;;;;;6.00;5.13;;;;;;;;;;4902839;29;20239;-86
2022/06/28 01:34:27;;;;;;;5.97;5.47;;;;;;;;;;4934117;29;20193;-85
2022/06/28 01:37:32;;;;;;;7.20;5.77;;;;;;;;;;4936493;29;20196;-85
2022/06/28 01:40:36;;;;;;;8.40;5.80;;;;;;;;;;4932601;29;20187;-85
2022/06/28 01:43:41;;;;;;;5.50;4.93;;;;;;;;;;4932677;29;20204;-85
2022/06/28 01:46:45;;;;;;;7.07;5.27;;;;;;;;;;4932676;29;20191;-86
2022/06/28 01:49:53;;;;;;;8.60;6.10;;;;;;;;;;4922802;29;20179;-85
2022/06/28 01:52:58;;;;;;;13.87;5.73;;;;;;;;;;4932539;29;20224;-85
2022/06/28 01:56:19;;;;;;;6.43;5.67;;;;;;;;;;4943538;29;20195;-85
2022/06/28 01:59:33;;;;;;;6.83;5.70;;;;;;;;;;4934440;29;20180;-85
2022/06/28 02:02:46;;;;;;;5.73;5.13;;;;;;;;;;4917291;29;20223;-85
2022/06/28 02:06:17;;;;;;;8.83;5.67;;;;;;;;;;4917093;29;20184;-85
2022/06/28 02:09:21;;;;;;;7.53;5.90;;;;;;;;;;4903469;29;20176;-85
2022/06/28 02:12:28;;;;;;;7.17;6.00;;;;;;;;;;4916883;29;20227;-85
2022/06/28 02:15:33;;;;;;;6.63;5.63;;;;;;;;;;4906209;29;20204;-85
2022/06/28 02:18:38;;;;;;;9.07;6.10;;;;;;;;;;4906571;29;20520;-85
2022/06/28 02:21:44;;;;;;;8.80;5.43;;;;;;;;;;4916947;29;20216;-85
2022/06/28 02:24:51;;;;;;;11.10;5.77;;;;;;;;;;4906644;29;20184;-85
2022/06/28 02:27:55;;;;;;;6.33;5.37;;;;;;;;;;4916751;29;20183;-86
2022/06/28 02:31:00;;;;;;;7.77;5.70;;;;;;;;;;4916419;29;20231;-85
2022/06/28 02:34:04;;;;;;;7.00;6.30;;;;;;;;;;4927531;29;20184;-85
2022/06/28 02:40:33;;;;;;;10.00;5.53;;;;;;;;;;4911674;29;20647;-85
2022/06/28 02:43:37;;;;;;;6.57;5.83;;;;;;;;;;4939907;29;20173;-85
2022/06/28 02:46:42;;;;;;;7.57;5.93;;;;;;;;;;4906388;29;20185;-85
2022/06/28 02:49:46;;;;;;;9.63;6.20;;;;;;;;;;4939063;29;20176;-85
2022/06/28 02:52:50;;;;;;;7.60;6.20;;;;;;;;;;4939538;29;20228;-85
2022/06/28 02:55:54;;;;;;;8.93;5.60;;;;;;;;;;4927758;29;20643;-85
2022/06/28 02:58:58;;;;;;;7.53;5.93;;;;;;;;;;4917020;29;20184;-85
2022/06/28 03:02:03;;;;;;;8.53;6.10;;;;;;;;;;4916469;29;20211;-85
2022/06/28 03:05:11;;;;;;;8.60;5.87;;;;;;;;;;4917731;29;20200;-84
2022/06/28 03:08:15;;;;;;;7.57;5.60;;;;;;;;;;4948130;29;20516;-85
2022/06/28 03:11:20;;;;;;;6.20;5.43;;;;;;;;;;4945762;29;20227;-91
2022/06/28 04:34:17;;;;;;;8.30;5.43;;;;;;;;;;5014422;23;20234;-90
2022/06/28 04:37:26;;;;;;;9.30;5.53;;;;;;;;;;4942550;28;20641;-90
2022/06/28 04:40:32;;;;;;;7.10;5.27;;;;;;;;;;4942116;28;20175;-90
2022/06/28 04:43:53;;;;;;;9.30;5.83;;;;;;;;;;4933303;29;20215;-90
2022/06/28 04:47:01;;;;;;;7.97;5.27;;;;;;;;;;4934332;29;20627;-90
2022/06/28 04:50:09;;;;;;;5.63;5.03;;;;;;;;;;4934210;29;20192;-90
2022/06/28 04:53:13;;;;;;;5.80;4.63;;;;;;;;;;4933266;29;20226;-90
2022/06/28 04:56:23;;;;;;;6.37;5.57;;;;;;;;;;4922926;29;20192;-90
2022/06/28 04:59:28;;;;;;;5.60;5.10;;;;;;;;;;4933217;29;20203;-90
2022/06/28 05:02:36;;;;;;;7.20;5.20;;;;;;;;;;4933282;29;20524;-90
2022/06/28 05:05:42;;;;;;;8.73;5.93;;;;;;;;;;4933359;29;20180;-90
2022/06/28 05:08:45;;;;;;;6.53;5.23;;;;;;;;;;4933123;29;20207;-90
2022/06/28 05:11:49;;;;;;;6.40;5.80;;;;;;;;;;4932825;29;20231;-90
2022/06/28 05:15:04;;;;;;;8.90;5.80;;;;;;;;;;4923961;29;20183;-90
2022/06/28 05:18:29;;;;;;;8.57;5.23;;;;;;;;;;4944436;29;20179;-90
2022/06/28 05:21:33;;;;;;;6.13;5.53;;;;;;;;;;4933656;29;20179;-90
2022/06/28 05:24:38;;;;;;;8.37;5.90;;;;;;;;;;4922809;29;20697;-88
2022/06/28 05:27:47;;;;;;;7.87;6.20;;;;;;;;;;4933125;29;20646;-88
2022/06/28 05:30:51;;;;;;;11.30;6.40;;;;;;;;;;4944422;29;20183;-87
2022/06/28 05:33:55;;;;;;;9.37;6.43;;;;;;;;;;4933137;29;20715;-87
2022/06/28 05:36:59;;;;;;;9.43;6.37;;;;;;;;;;4950959;28;20203;-88
2022/06/28 05:40:04;;;;;;;9.90;6.73;;;;;;;;;;4922293;29;20203;-87
2022/06/28 05:43:08;;;;;;;7.53;6.43;;;;;;;;;;4940255;28;20219;-88
2022/06/28 05:46:12;;;;;;;8.30;6.60;;;;;;;;;;4952577;28;20199;-87
2022/06/28 05:49:17;;;;;;;6.73;5.63;;;;;;;;;;4936647;29;20183;-88
2022/06/28 05:52:21;;;;;;;11.33;5.83;;;;;;;;;;4936720;29;20208;-88
2022/06/28 05:55:25;;;;;;;6.10;5.50;;;;;;;;;;4925464;29;20214;-88
2022/06/28 05:58:30;;;;;;;7.20;5.73;;;;;;;;;;4952015;28;20191;-88
2022/06/28 06:01:34;;;;;;;6.60;5.23;;;;;;;;;;4930616;28;20199;-89
2022/06/28 06:04:40;;;;;;;11.43;5.87;;;;;;;;;;4936256;29;20192;-88
2022/06/28 06:07:44;;;;;;;6.37;5.10;;;;;;;;;;4927832;29;20187;-88
2022/06/28 06:10:48;;;;;;;9.27;5.57;;;;;;;;;;4938968;28;20188;-88
2022/06/28 06:13:53;;;;;;;5.57;4.37;;;;;;;;;;4952377;28;20222;-85
2022/06/28 06:16:57;;;;;;;6.87;4.03;;;;;;;;;;4949112;28;20195;-85
2022/06/28 06:20:02;;;;;;;5.97;4.23;;;;;;;;;;4933172;29;20651;-85
2022/06/28 06:23:07;;;;;;;10.10;4.77;;;;;;;;;;4923961;28;20207;-85
2022/06/28 06:26:31;;;;;;;12.40;5.03;;;;;;;;;;4938113;29;20187;-88
2022/06/28 06:29:35;;;;;;;6.37;4.67;;;;;;;;;;4951040;28;20203;-89
2022/06/28 06:32:41;;;;;;;7.03;5.00;;;;;;;;;;4948165;28;20677;-87
2022/06/28 06:36:04;;;;;;;5.87;5.07;;;;;;;;;;4922194;29;20195;-88
2022/06/28 06:39:09;;;;;;;9.00;5.30;;;;;;;;;;4945260;28;20191;-87
2022/06/28 06:42:13;;;;;;;9.30;5.77;;;;;;;;;;4905708;29;20180;-85
2022/06/28 06:45:24;;;;;;;7.57;5.90;;;;;;;;;;4926575;29;20184;-85
2022/06/28 06:48:28;;;;;;;6.97;6.27;;;;;;;;;;4927212;29;20180;-85
2022/06/28 06:51:32;;;;;;;5.97;5.37;;;;;;;;;;4926983;29;20243;-85
2022/06/28 06:54:36;;;;;;;8.90;5.57;;;;;;;;;;4927113;29;20208;-85
2022/06/28 06:57:40;;;;;;;7.30;6.57;;;;;;;;;;4916030;29;20520;-85
2022/06/28 07:00:44;;;;;;;7.37;5.67;;;;;;;;;;4926924;29;20188;-85
2022/06/28 07:03:48;;;;;;;8.50;6.33;;;;;;;;;;4915949;29;20215;-86
2022/06/28 07:06:55;;;;;;;6.97;6.13;;;;;;;;;;4927050;29;20188;-86
2022/06/28 07:10:00;;;;;;;6.63;6.03;;;;;;;;;;4926730;29;20193;-86
2022/06/28 07:13:05;;;;;;;5.97;5.30;;;;;;;;;;4926458;29;20231;-86
2022/06/28 07:16:09;;;;;;;9.03;6.67;;;;;;;;;;4915332;29;20188;-86
2022/06/28 07:19:14;;;;;;;11.07;9.87;;;;;;;;;;4926484;29;20635;-86
2022/06/28 07:22:18;;;;;;;11.47;10.37;;;;;;;;;;4915224;29;20187;-86
2022/06/28 07:25:29;;;;;;;10.73;9.77;;;;;;;;;;4926084;29;20211;-86
2022/06/28 07:28:33;;;;;;;8.73;7.93;;;;;;;;;;4926279;29;20195;-86
2022/06/28 07:31:37;;;;;;;9.03;8.13;;;;;;;;;;4926129;29;20184;-86
2022/06/28 07:34:42;;;;;;;7.33;6.73;;;;;;;;;;4925713;29;20204;-86
2022/06/28 07:37:46;;;;;;;5.63;5.13;;;;;;;;;;4915271;29;20188;-86
2022/06/28 07:40:51;;;;;;;5.20;4.80;;;;;;;;;;4926070;29;20639;-86
2022/06/28 07:44:30;;;;;;;8.00;5.70;;;;;;;;;;4936519;29;20565;-86
2022/06/28 07:47:35;;;;;;;6.07;5.57;;;;;;;;;;4925935;29;20180;-86
2022/06/28 07:54:03;;;;;;;6.43;5.93;;;;;;;;;;4925339;29;20231;-86
2022/06/28 07:57:09;;;;;;;7.90;7.03;;;;;;;;;;4926029;29;20192;-86
2022/06/28 08:00:19;;;;;;;11.50;7.20;;;;;;;;;;4915629;29;20185;-86
2022/06/28 08:03:33;;;;;;;8.73;6.80;;;;;;;;;;4925893;29;20219;-86
2022/06/28 08:06:38;;;;;;;9.47;8.03;;;;;;;;;;4925634;29;20184;-86
2022/06/28 08:09:42;;;;;;;7.80;7.10;;;;;;;;;;4937267;29;20518;-86
2022/06/28 08:12:47;;;;;;;7.27;6.77;;;;;;;;;;4937146;29;20220;-86
2022/06/28 08:15:51;;;;;;;9.27;7.87;;;;;;;;;;4926162;29;20192;-86
2022/06/28 08:18:55;;;;;;;7.50;6.90;;;;;;;;;;4926012;29;20524;-86
2022/06/28 08:22:08;;;;;;;7.00;5.83;;;;;;;;;;4926047;29;20191;-86
2022/06/28 08:25:13;;;;;;;8.07;5.97;;;;;;;;;;4925409;29;20196;-86
2022/06/28 08:28:17;;;;;;;6.93;6.33;;;;;;;;;;4914769;29;20190;-86
2022/06/28 08:31:21;;;;;;;6.20;5.70;;;;;;;;;;4914514;29;20522;-86
2022/06/28 08:34:25;;;;;;;7.80;6.93;;;;;;;;;;4924829;29;20232;-86
2022/06/28 08:37:31;;;;;;;6.70;6.07;;;;;;;;;;4935707;29;20208;-86
2022/06/28 08:40:35;;;;;;;5.53;5.13;;;;;;;;;;4925629;29;20180;-86
2022/06/28 08:43:39;;;;;;;6.53;5.50;;;;;;;;;;4914021;29;20226;-86
2022/06/28 08:46:48;;;;;;;8.50;5.83;;;;;;;;;;4925028;29;20203;-86
2022/06/28 08:50:00;;;;;;;7.67;7.07;;;;;;;;;;4925121;29;20186;-86
2022/06/28 08:53:07;;;;;;;7.70;7.00;;;;;;;;;;4924873;29;20226;-86
2022/06/28 08:56:12;;;;;;;8.53;7.40;;;;;;;;;;4915569;29;20515;-86
2022/06/28 08:59:16;;;;;;;8.10;7.30;;;;;;;;;;4926759;29;20180;-86
2022/06/28 09:02:20;;;;;;;7.50;6.77;;;;;;;;;;4926455;29;20188;-86
2022/06/28 09:05:26;;;;;;;7.90;7.13;;;;;;;;;;4931220;29;20172;-86
2022/06/28 09:08:30;;;;;;;5.47;5.00;;;;;;;;;;4932763;29;20182;-86
2022/06/28 09:11:43;;;;;;;7.40;4.40;;;;;;;;;;4922642;29;20182;-86
2022/06/28 09:14:48;;;;;;;4.63;4.10;;;;;;;;;;4932060;29;20209;-86
2022/06/28 09:17:55;;;;;;;4.47;3.90;;;;;;;;;;4941858;29;20191;-86
2022/06/28 09:21:00;;;;;;;3.55;3.25;;;;;;;;;;4923282;29;20179;-85
2022/06/28 09:24:04;;;;;;;3.22;3.03;;;;;;;;;;4932497;29;20557;-85
2022/06/28 09:27:08;;;;;;;5.22;3.25;;;;;;;;;;4920780;29;20179;-86
2022/06/28 09:30:13;;;;;;;3.92;3.60;;;;;;;;;;4941507;29;20186;-86
2022/06/28 09:33:27;;;;;;;3.30;2.65;;;;;;;;;;4930080;29;20229;-86
2022/06/28 09:36:39;;;;;;;3.05;2.47;;;;;;;;;;4929999;29;20194;-86
2022/06/28 09:39:47;;;;;;;3.97;2.17;;;;;;;;;;4918358;29;20663;-86
2022/06/28 09:43:08;;;;;;;2.78;2.20;;;;;;;;;;4929187;29;20217;-86
2022/06/28 09:46:12;;;;;;;3.58;1.80;;;;;;;;;;4928622;29;20186;-86
2022/06/28 09:49:16;;;;;;;2.25;1.70;;;;;;;;;;4917628;29;20190;-86
2022/06/28 09:52:28;;;;;;;2.85;1.55;;;;;;;;;;4928695;29;20221;-86
2022/06/28 09:55:33;;;;;;;5.68;1.75;;;;;;;;;;4941250;28;20187;-86
2022/06/28 09:58:38;;;;;;;4.03;1.65;;;;;;;;;;4963775;28;20526;-86
2022/06/28 10:01:52;;;;;;;4.40;2.53;;;;;;;;;;4958105;28;20195;-86
2022/06/28 10:05:00;;;;;;;2.20;1.70;;;;;;;;;;4936550;29;20178;-86
2022/06/28 10:08:06;;;;;;;1.50;1.40;;;;;;;;;;4928085;29;20206;-86
2022/06/28 10:11:11;;;;;;;3.17;1.40;;;;;;;;;;4917655;29;20179;-86
2022/06/28 10:17:59;;;;;;;1.60;1.50;;;;;;;;;;4951880;28;20205;-86
2022/06/28 10:21:03;;;;;;;3.45;1.88;;;;;;;;;;4934507;29;20654;-86
2022/06/28 10:24:09;;;;;;;1.85;1.75;;;;;;;;;;4935850;29;20218;-85
2022/06/28 10:27:14;;;;;;;2.20;2.00;;;;;;;;;;4916723;29;20202;-85
2022/06/28 10:30:21;;;;;;;2.58;2.05;;;;;;;;;;4916060;29;20188;-85
2022/06/28 10:33:44;;;;;;;2.00;1.65;;;;;;;;;;4916587;29;20237;-85
2022/06/28 10:36:55;;;;;;;2.25;1.73;;;;;;;;;;4972155;23;20578;-76
2022/06/28 10:40:38;;;;;;;1.60;1.50;;;;;;;;;;4982874;28;20204;-76
2022/06/28 10:43:45;;;;;;;2.67;1.70;;;;;;;;;;4899972;29;20206;-77
2022/06/28 10:46:52;;;;;;;3.25;1.98;;;;;;;;;;4951559;28;20200;-76
2022/06/28 10:49:58;;;;;;;2.38;1.52;;;;;;;;;;4937180;28;20194;-77
2022/06/28 10:53:03;;;;;;;4.30;1.83;;;;;;;;;;4935908;28;20541;-77
2022/06/28 10:56:13;;;;;;;1.95;1.42;;;;;;;;;;4948727;29;20191;-77
2022/06/28 10:59:34;;;;;;;2.22;1.48;;;;;;;;;;4934833;29;20200;-77
2022/06/28 11:03:05;;;;;;;2.35;1.80;;;;;;;;;;4951281;28;20224;-77
2022/06/28 11:06:10;;;;;;;1.88;1.70;;;;;;;;;;4942908;28;20197;-77
2022/06/28 11:09:47;;;;;;;3.83;1.80;;;;;;;;;;4939999;29;20189;-78
2022/06/28 11:13:14;;;;;;;3.00;1.70;;;;;;;;;;4951914;28;20190;-77
2022/06/28 11:16:45;;;;;;;3.85;1.30;;;;;;;;;;4953168;28;20193;-76
2022/06/28 11:19:53;;;;;;;3.17;1.50;;;;;;;;;;4957235;28;20540;-78
2022/06/28 11:22:57;;;;;;;5.43;1.45;;;;;;;;;;4960131;28;20197;-77
2022/06/28 11:29:36;;;;;;;2.08;1.40;;;;;;;;;;4969451;28;20193;-77
2022/06/28 11:32:43;;;;;;;2.13;1.42;;;;;;;;;;4955608;28;20221;-77
2022/06/28 11:35:47;;;;;;;9.02;2.25;;;;;;;;;;4950674;28;20544;-77
2022/06/28 11:38:51;;;;;;;1.90;1.50;;;;;;;;;;4956645;28;20203;-77
2022/06/28 11:41:58;;;;;;;3.30;1.67;;;;;;;;;;4946727;28;20707;-77
2022/06/28 11:45:02;;;;;;;1.60;1.50;;;;;;;;;;4957751;28;20181;-77
2022/06/28 11:48:12;;;;;;;3.95;1.70;;;;;;;;;;4943911;28;20191;-77
2022/06/28 11:51:25;;;;;;;4.93;1.55;;;;;;;;;;4937071;29;20708;-78
2022/06/28 11:54:29;;;;;;;3.33;1.67;;;;;;;;;;4946889;29;20221;-77
2022/06/28 11:57:40;;;;;;;3.50;1.92;;;;;;;;;;4936657;28;20569;-77
2022/06/28 12:01:08;;;;;;;2.28;2.00;;;;;;;;;;4969602;28;20223;-77
2022/06/28 12:04:21;;;;;;;1.95;1.67;;;;;;;;;;4966597;28;20176;-77
2022/06/28 12:07:37;;;;;;;1.60;1.45;;;;;;;;;;4965832;28;20181;-77
2022/06/28 12:10:44;;;;;;;2.92;1.60;;;;;;;;;;4978187;28;20220;-77
2022/06/28 12:13:48;;;;;;;3.00;1.88;;;;;;;;;;4976036;28;20544;-77
2022/06/28 12:17:00;;;;;;;6.13;2.35;;;;;;;;;;4978231;28;20189;-77
2022/06/28 12:20:08;;;;;;;3.33;1.70;;;;;;;;;;4966009;28;20199;-77
2022/06/28 12:23:12;;;;;;;4.03;2.00;;;;;;;;;;4977590;28;20658;-77
2022/06/28 12:26:17;;;;;;;2.23;1.87;;;;;;;;;;4966510;28;20633;-77
2022/06/28 12:29:21;;;;;;;2.63;2.30;;;;;;;;;;4978003;28;20185;-77
2022/06/28 12:32:27;;;;;;;5.30;2.58;;;;;;;;;;4954882;28;20223;-77
2022/06/28 12:35:31;;;;;;;2.93;2.70;;;;;;;;;;4980188;28;20541;-77
2022/06/28 12:38:35;;;;;;;4.93;2.60;;;;;;;;;;4957398;28;20183;-78
2022/06/28 12:41:40;;;;;;;3.10;2.73;;;;;;;;;;4967593;28;20225;-77
2022/06/28 12:44:44;;;;;;;2.60;2.40;;;;;;;;;;4966857;28;20179;-77
2022/06/28 12:47:48;;;;;;;3.00;2.70;;;;;;;;;;4966253;28;20184;-77
2022/06/28 12:50:54;;;;;;;3.70;2.70;;;;;;;;;;4979346;28;20215;-77
2022/06/28 12:53:59;;;;;;;3.27;2.90;;;;;;;;;;4965593;28;20213;-77
2022/06/28 12:57:04;;;;;;;8.47;2.70;;;;;;;;;;4965993;28;20194;-77
2022/06/28 13:00:12;;;;;;;3.43;2.30;;;;;;;;;;4964888;28;20198;-77
2022/06/28 13:03:19;;;;;;;3.03;2.47;;;;;;;;;;4953301;28;20204;-77
2022/06/28 13:06:23;;;;;;;3.13;2.47;;;;;;;;;;4963802;28;20200;-77
2022/06/28 13:09:30;;;;;;;2.70;2.50;;;;;;;;;;4973290;28;20194;-77
2022/06/28 13:12:34;;;;;;;4.83;2.50;;;;;;;;;;4961823;28;20702;-77
2022/06/28 13:15:38;;;;;;;5.33;2.10;;;;;;;;;;4954104;28;20213;-77
2022/06/28 13:18:43;;;;;;;2.87;2.13;;;;;;;;;;4962338;28;20190;-76
2022/06/28 13:21:48;;;;;;;2.30;2.10;;;;;;;;;;4941960;29;20225;-77
2022/06/28 13:24:52;;;;;;;2.53;1.83;;;;;;;;;;4952924;29;20171;-77
2022/06/28 13:27:56;;;;;;;4.20;1.97;;;;;;;;;;4946090;28;20187;-77
2022/06/28 13:31:01;;;;;;;4.40;2.07;;;;;;;;;;4954086;28;20720;-77
2022/06/28 13:34:05;;;;;;;2.20;2.00;;;;;;;;;;4974347;28;20525;-77
2022/06/28 13:37:10;;;;;;;4.73;2.13;;;;;;;;;;4962198;28;20210;-77
2022/06/28 13:40:14;;;;;;;2.10;1.90;;;;;;;;;;4950389;28;20655;-77
2022/06/28 13:43:33;;;;;;;2.20;2.00;;;;;;;;;;4955795;29;20207;-77
2022/06/28 13:46:38;;;;;;;4.57;2.13;;;;;;;;;;4932839;29;20180;-77
2022/06/28 13:49:42;;;;;;;2.90;1.90;;;;;;;;;;4950838;28;20184;-77
2022/06/28 13:52:46;;;;;;;3.83;2.00;;;;;;;;;;4968692;28;20191;-77
2022/06/28 13:55:51;;;;;;;2.90;1.80;;;;;;;;;;4962012;28;20206;-77
2022/06/28 13:58:55;;;;;;;6.43;2.00;;;;;;;;;;4968426;28;20199;-77
2022/06/28 14:01:59;;;;;;;2.77;1.77;;;;;;;;;;4943528;28;20221;-78
2022/06/28 14:05:04;;;;;;;3.87;1.80;;;;;;;;;;4960304;28;20650;-77
2022/06/28 14:08:09;;;;;;;4.43;1.90;;;;;;;;;;4973799;28;20541;-77
2022/06/28 14:11:13;;;;;;;2.20;2.00;;;;;;;;;;4946777;29;20220;-77
2022/06/28 14:14:17;;;;;;;2.40;1.70;;;;;;;;;;4958312;28;20195;-77
2022/06/28 14:17:21;;;;;;;3.60;1.93;;;;;;;;;;4946560;29;20207;-77
2022/06/28 14:20:26;;;;;;;7.53;1.90;;;;;;;;;;4971448;28;20187;-77
2022/06/28 14:23:31;;;;;;;3.17;1.80;;;;;;;;;;4946619;29;20189;-77
2022/06/28 14:26:35;;;;;;;3.67;1.90;;;;;;;;;;4936169;29;20196;-77
2022/06/28 14:29:39;;;;;;;2.20;2.00;;;;;;;;;;4946503;29;20201;-77
2022/06/28 14:32:44;;;;;;;3.80;1.93;;;;;;;;;;4961500;29;20195;-78
2022/06/28 14:35:49;;;;;;;3.10;1.90;;;;;;;;;;4968205;29;20209;-78
2022/06/28 14:38:53;;;;;;;1.93;1.83;;;;;;;;;;4949229;29;20188;-78
2022/06/28 14:41:57;;;;;;;2.27;2.07;;;;;;;;;;4947525;29;20211;-78
2022/06/28 14:45:07;;;;;;;4.30;2.10;;;;;;;;;;4962524;29;20193;-78
2022/06/28 14:48:12;;;;;;;4.43;1.83;;;;;;;;;;4948281;28;20180;-79
2022/06/28 14:51:16;;;;;;;2.90;1.77;;;;;;;;;;4970749;28;20219;-78
2022/06/28 14:54:20;;;;;;;1.95;1.70;;;;;;;;;;4967193;28;20187;-78
2022/06/28 14:57:25;;;;;;;117.07;26.58;;;;;;;;;;4971098;28;20186;-78
2022/06/28 15:00:29;;;;;;;116.38;26.98;;;;;;;;;;4960481;28;20208;-78
2022/06/28 15:03:34;;;;;;;6.70;3.20;;;;;;;;;;4960407;28;20214;-79
2022/06/28 15:06:38;;;;;;;2.58;1.90;;;;;;;;;;4990152;28;20181;-79
2022/06/28 15:09:43;;;;;;;2.00;1.65;;;;;;;;;;4969167;28;20186;-78
2022/06/28 15:12:47;;;;;;;2.00;1.80;;;;;;;;;;4955016;28;20172;-80
2022/06/28 15:15:51;;;;;;;2.13;1.92;;;;;;;;;;4970017;28;20202;-78
2022/06/28 15:18:56;;;;;;;3.80;2.00;;;;;;;;;;4981063;28;20632;-78
2022/06/28 15:32:10;;;;;;;4.97;2.30;;;;;;;;;;4975942;28;20223;-78
2022/06/28 15:35:16;;;;;;;6.53;1.90;;;;;;;;;;4972815;28;20217;-78
2022/06/28 15:38:21;;;;;;;2.33;2.00;;;;;;;;;;4946957;28;20207;-77
2022/06/28 15:41:26;;;;;;;3.50;2.10;;;;;;;;;;4943527;29;20224;-78
2022/06/28 15:44:30;;;;;;;3.37;2.00;;;;;;;;;;4966579;28;20194;-77
2022/06/28 15:47:34;;;;;;;2.73;1.90;;;;;;;;;;4977811;28;20197;-77
2022/06/28 15:50:39;;;;;;;2.10;1.90;;;;;;;;;;4946771;28;20220;-78
2022/06/28 15:53:43;;;;;;;3.23;2.07;;;;;;;;;;4936011;29;20185;-77
2022/06/28 15:56:48;;;;;;;4.43;2.23;;;;;;;;;;4958378;28;20209;-77
2022/06/28 15:59:52;;;;;;;2.27;2.00;;;;;;;;;;4948498;28;20204;-78
2022/06/28 16:02:56;;;;;;;4.37;2.40;;;;;;;;;;4954938;28;20181;-78
2022/06/28 16:06:00;;;;;;;6.80;1.83;;;;;;;;;;4964859;28;20184;-77
2022/06/28 16:09:05;;;;;;;2.60;2.30;;;;;;;;;;4944220;28;20191;-76
2022/06/28 16:15:35;;;;;;;2.50;2.30;;;;;;;;;;4959759;28;20674;-76
2022/06/28 16:18:39;;;;;;;2.03;1.83;;;;;;;;;;4937256;28;20201;-76
2022/06/28 16:21:43;;;;;;;3.07;2.20;;;;;;;;;;4953236;28;20228;-77
2022/06/28 16:24:47;;;;;;;4.13;2.10;;;;;;;;;;4978028;28;20523;-77
2022/06/28 16:27:52;;;;;;;6.20;2.47;;;;;;;;;;4934182;28;20194;-76
2022/06/28 16:30:57;;;;;;;5.03;2.13;;;;;;;;;;4965928;28;20573;-77
2022/06/28 16:34:03;;;;;;;6.47;2.30;;;;;;;;;;4976077;28;20183;-76
2022/06/28 16:37:07;;;;;;;3.10;2.50;;;;;;;;;;4981740;23;20226;-85
2022/06/28 16:40:17;;;;;;;3.80;3.07;;;;;;;;;;4947261;28;20345;-86
2022/06/28 16:43:21;;;;;;;4.10;3.00;;;;;;;;;;4947267;29;20194;-86
2022/06/28 16:46:26;;;;;;;3.40;3.10;;;;;;;;;;4932987;29;20196;-88
2022/06/28 16:49:30;;;;;;;3.47;2.23;;;;;;;;;;4903165;29;20189;-85
2022/06/28 16:52:34;;;;;;;4.43;2.30;;;;;;;;;;4913721;29;20538;-85
2022/06/28 16:55:38;;;;;;;4.37;2.70;;;;;;;;;;4931167;29;20215;-85
2022/06/28 16:58:43;;;;;;;5.13;2.40;;;;;;;;;;4895240;29;20220;-85
2022/06/28 17:01:47;;;;;;;4.83;2.20;;;;;;;;;;4895280;29;20188;-85
2022/06/28 17:04:51;;;;;;;3.77;2.20;;;;;;;;;;4912457;29;20206;-86
2022/06/28 17:07:55;;;;;;;2.37;2.17;;;;;;;;;;4930274;29;20218;-84
2022/06/28 17:10:59;;;;;;;2.47;2.07;;;;;;;;;;4903966;29;20186;-85
2022/06/28 17:14:04;;;;;;;3.23;2.57;;;;;;;;;;4913807;29;20194;-85
2022/06/28 17:17:08;;;;;;;3.27;2.43;;;;;;;;;;4913117;29;20690;-85
2022/06/28 17:20:12;;;;;;;2.90;2.33;;;;;;;;;;4903417;29;20193;-84
2022/06/28 17:23:16;;;;;;;3.63;2.30;;;;;;;;;;4914460;29;20190;-86
2022/06/28 17:26:20;;;;;;;3.57;2.70;;;;;;;;;;4913872;29;20190;-85
2022/06/28 17:29:25;;;;;;;5.37;2.53;;;;;;;;;;4924520;29;20222;-85
2022/06/28 17:32:29;;;;;;;2.50;2.30;;;;;;;;;;4899692;29;20185;-85
2022/06/28 17:35:33;;;;;;;3.93;2.50;;;;;;;;;;4902858;29;20558;-85
2022/06/28 17:38:38;;;;;;;2.80;2.43;;;;;;;;;;4914443;29;20233;-86
2022/06/28 17:41:42;;;;;;;3.10;2.47;;;;;;;;;;4916419;29;20180;-86
2022/06/28 17:44:47;;;;;;;3.87;2.67;;;;;;;;;;4928063;29;20192;-86
2022/06/28 17:47:51;;;;;;;2.63;2.33;;;;;;;;;;4924454;29;20533;-86
2022/06/28 17:50:55;;;;;;;2.43;2.23;;;;;;;;;;4907310;29;20196;-85
2022/06/28 17:53:59;;;;;;;2.37;2.10;;;;;;;;;;4929137;29;20188;-85
2022/06/28 17:57:06;;;;;;;3.17;2.10;;;;;;;;;;4906894;29;20208;-85
2022/06/28 18:00:10;;;;;;;2.23;2.03;;;;;;;;;;4921383;29;20197;-85
2022/06/28 18:03:16;;;;;;;3.87;2.40;;;;;;;;;;4921605;29;20196;-86
2022/06/28 18:06:21;;;;;;;5.10;2.20;;;;;;;;;;4919870;29;20639;-86
2022/06/28 18:09:25;;;;;;;2.93;2.40;;;;;;;;;;4912189;29;20219;-86
2022/06/28 18:12:29;;;;;;;4.10;2.97;;;;;;;;;;4917472;29;20532;-86
2022/06/28 18:15:34;;;;;;;7.13;2.53;;;;;;;;;;4916962;29;20195;-85
2022/06/28 18:18:38;;;;;;;5.80;2.40;;;;;;;;;;4915992;29;20227;-85
2022/06/28 18:21:42;;;;;;;3.00;2.70;;;;;;;;;;4902614;29;20208;-86
2022/06/28 18:24:48;;;;;;;3.47;2.70;;;;;;;;;;4929336;29;20200;-86
2022/06/28 18:27:52;;;;;;;3.77;2.93;;;;;;;;;;4927234;29;20216;-85
2022/06/28 18:30:56;;;;;;;3.57;2.70;;;;;;;;;;4931550;29;20187;-85
2022/06/28 18:34:00;;;;;;;3.10;2.60;;;;;;;;;;4932762;29;20183;-85
2022/06/28 18:37:05;;;;;;;3.07;2.87;;;;;;;;;;4898225;29;20212;-85
2022/06/28 18:40:11;;;;;;;3.27;2.97;;;;;;;;;;4908148;29;20545;-85
2022/06/28 18:43:15;;;;;;;4.80;2.73;;;;;;;;;;4919194;29;20185;-85
2022/06/28 18:46:20;;;;;;;3.27;2.93;;;;;;;;;;4919259;29;20192;-85
2022/06/28 18:49:24;;;;;;;4.07;3.40;;;;;;;;;;4920174;29;20215;-86
2022/06/28 18:52:28;;;;;;;4.33;3.00;;;;;;;;;;4923320;29;20183;-85
2022/06/28 18:55:32;;;;;;;3.60;3.30;;;;;;;;;;4942595;29;20196;-85
2022/06/28 18:58:37;;;;;;;4.17;3.40;;;;;;;;;;4934617;29;20733;-85
2022/06/28 19:01:41;;;;;;;4.57;3.37;;;;;;;;;;4934602;29;20650;-85
2022/06/28 19:04:45;;;;;;;3.50;3.20;;;;;;;;;;4924334;29;20187;-86
2022/06/28 19:07:50;;;;;;;5.43;3.50;;;;;;;;;;4920429;29;20211;-87
2022/06/28 19:10:54;;;;;;;4.77;3.30;;;;;;;;;;4912292;29;20563;-85
2022/06/28 19:13:58;;;;;;;3.93;3.30;;;;;;;;;;4923931;29;20686;-84
2022/06/28 19:17:02;;;;;;;3.83;3.50;;;;;;;;;;4918633;29;20676;-85
2022/06/28 19:20:07;;;;;;;4.07;3.37;;;;;;;;;;4910737;29;20189;-85
2022/06/28 19:23:11;;;;;;;5.83;3.27;;;;;;;;;;4923679;29;20183;-87
2022/06/28 19:26:16;;;;;;;4.73;3.00;;;;;;;;;;4924006;29;20203;-85
2022/06/28 19:29:19;;;;;;;5.40;3.17;;;;;;;;;;4919665;29;20224;-85
2022/06/28 19:32:23;;;;;;;3.87;3.40;;;;;;;;;;4904598;29;20524;-85
2022/06/28 19:35:28;;;;;;;3.73;3.43;;;;;;;;;;4917066;29;20571;-85
2022/06/28 19:38:32;;;;;;;5.17;3.30;;;;;;;;;;4934151;29;20223;-85
2022/06/28 19:41:36;;;;;;;3.90;3.20;;;;;;;;;;4899540;29;20205;-85
2022/06/28 19:44:40;;;;;;;3.30;3.03;;;;;;;;;;4919371;29;20188;-85
2022/06/28 19:47:45;;;;;;;4.13;3.53;;;;;;;;;;4885327;29;20217;-84
2022/06/28 19:50:49;;;;;;;4.37;3.60;;;;;;;;;;4912750;29;20196;-85
2022/06/28 19:53:52;;;;;;;5.33;3.10;;;;;;;;;;4911624;29;20200;-85
2022/06/28 19:56:57;;;;;;;4.90;3.53;;;;;;;;;;4904891;29;20224;-85
2022/06/28 20:00:02;;;;;;;3.90;3.60;;;;;;;;;;4900317;29;20212;-85
2022/06/28 20:03:16;;;;;;;3.50;3.20;;;;;;;;;;4929667;29;20188;-85
2022/06/28 20:06:20;;;;;;;4.93;3.73;;;;;;;;;;4929101;29;20224;-85
2022/06/28 20:09:24;;;;;;;6.30;3.47;;;;;;;;;;4915004;29;20258;-85
2022/06/28 20:12:29;;;;;;;5.57;3.37;;;;;;;;;;4896793;29;20513;-84
2022/06/28 20:15:34;;;;;;;4.23;3.50;;;;;;;;;;4926571;29;20195;-85
2022/06/28 20:18:37;;;;;;;5.33;3.47;;;;;;;;;;4923221;29;20207;-84
2022/06/28 20:21:41;;;;;;;4.90;3.70;;;;;;;;;;4930359;29;20199;-84
2022/06/28 20:24:46;;;;;;;5.43;3.70;;;;;;;;;;4926135;29;20184;-85